createdAt,value
2018-09-08T00:02:18.972Z,90.83
2018-09-08T00:04:47.904Z,92.16
2018-09-08T00:07:21.940Z,92.76
2018-09-08T00:09:50.908Z,94.00
2018-09-08T00:12:19.845Z,94.22
2018-09-08T00:14:47.768Z,95.15
2018-09-08T00:17:24.552Z,94.96
2018-09-08T00:19:58.451Z,95.12
2018-09-08T00:22:32.439Z,96.26
2018-09-08T00:25:06.333Z,96.26
2018-09-08T00:27:42.684Z,95.60
2018-09-08T00:30:13.763Z,95.28
2018-09-08T00:32:42.735Z,95.27
2018-09-08T00:35:11.744Z,96.16
2018-09-08T00:37:40.679Z,98.22
2018-09-08T00:40:09.632Z,98.18
2018-09-08T00:42:38.614Z,97.98
2018-09-08T00:45:07.739Z,97.45
2018-09-08T00:47:36.687Z,97.79
2018-09-08T00:50:05.844Z,98.84
2018-09-08T00:52:34.857Z,99.43
2018-09-08T00:55:03.804Z,99.03
2018-09-08T00:57:32.791Z,98.45
2018-09-08T01:00:01.785Z,99.31
2018-09-08T01:02:30.784Z,98.62
2018-09-08T01:04:59.728Z,98.48
2018-09-08T01:07:31.355Z,98.59
2018-09-08T01:10:02.363Z,96.70
2018-09-08T01:12:31.662Z,94.23
2018-09-08T01:15:01.244Z,92.52
2018-09-08T01:17:30.183Z,90.09
2018-09-08T01:19:59.147Z,88.39
2018-09-08T01:22:28.340Z,88.04
2018-09-08T01:24:57.385Z,87.60
2018-09-08T01:27:26.393Z,86.61
2018-09-08T01:29:55.381Z,84.40
2018-09-08T01:32:24.355Z,84.89
2018-09-08T01:34:53.561Z,84.55
2018-09-08T01:37:22.617Z,82.54
2018-09-08T01:39:51.623Z,82.88
2018-09-08T01:42:20.661Z,81.71
2018-09-08T01:44:49.597Z,81.50
2018-09-08T01:47:18.620Z,80.99
2018-09-08T01:49:47.564Z,80.38
2018-09-08T01:52:16.554Z,81.00
2018-09-08T01:54:45.512Z,81.10
2018-09-08T01:57:14.548Z,81.04
2018-09-08T01:59:43.606Z,80.22
2018-09-08T02:02:12.621Z,81.42
2018-09-08T02:04:41.565Z,80.99
2018-09-08T02:07:10.512Z,81.57
2018-09-08T02:09:39.436Z,80.66
2018-09-08T02:12:08.396Z,81.68
2018-09-08T02:14:37.488Z,83.53
2018-09-08T02:17:06.785Z,85.45
2018-09-08T02:19:35.829Z,84.89
2018-09-08T02:22:05.036Z,85.95
2018-09-08T02:24:34.037Z,87.56
2018-09-08T02:27:03.045Z,88.01
2018-09-08T02:29:32.009Z,87.72
2018-09-08T02:32:01.047Z,87.98
2018-09-08T02:34:29.989Z,89.07
2018-09-08T02:36:58.923Z,89.65
2018-09-08T02:39:27.868Z,90.93
2018-09-08T02:41:56.873Z,90.35
2018-09-08T02:44:25.865Z,90.64
2018-09-08T02:46:54.819Z,90.30
2018-09-08T02:49:25.041Z,90.32
2018-09-08T02:51:52.574Z,88.93
2018-09-08T02:54:20.149Z,92.41
2018-09-08T02:56:47.722Z,91.80
2018-09-08T02:59:15.205Z,91.79
2018-09-08T03:01:42.719Z,90.68
2018-09-08T03:04:10.185Z,91.12
2018-09-08T03:06:37.705Z,92.35
2018-09-08T03:09:05.297Z,91.64
2018-09-08T03:11:32.813Z,91.09
2018-09-08T03:14:00.340Z,94.10
2018-09-08T03:16:27.852Z,94.45
2018-09-08T03:18:55.308Z,95.06
2018-09-08T03:21:22.837Z,95.09
2018-09-08T03:23:50.294Z,95.64
2018-09-08T03:26:17.862Z,95.73
2018-09-08T03:28:45.355Z,95.33
2018-09-08T03:31:12.816Z,96.35
2018-09-08T03:33:40.291Z,95.99
2018-09-08T03:36:07.840Z,96.68
2018-09-08T03:38:35.523Z,97.39
2018-09-08T03:41:02.988Z,97.41
2018-09-08T03:43:30.541Z,98.69
2018-09-08T03:45:58.061Z,99.00
2018-09-08T03:48:25.516Z,99.09
2018-09-08T03:50:52.987Z,99.61
2018-09-08T03:53:20.490Z,99.57
2018-09-08T03:55:48.032Z,99.61
2018-09-08T03:58:15.492Z,100.00
2018-09-08T04:00:43.067Z,100.00
2018-09-08T04:03:12.093Z,100.00
2018-09-08T04:05:41.097Z,100.00
2018-09-08T04:08:10.190Z,100.00
2018-09-08T04:10:39.152Z,100.00
2018-09-08T04:13:08.189Z,100.00
2018-09-08T04:15:37.133Z,100.00
2018-09-08T04:18:06.166Z,100.00
2018-09-08T04:20:35.132Z,100.00
2018-09-08T04:23:04.133Z,100.00
2018-09-08T04:25:33.165Z,99.89
2018-09-08T04:28:02.135Z,99.40
2018-09-08T04:30:31.141Z,98.99
2018-09-08T04:33:00.117Z,98.79
2018-09-08T04:35:29.204Z,98.87
2018-09-08T04:37:58.196Z,97.50
2018-09-08T04:40:27.229Z,94.10
2018-09-08T04:42:56.176Z,90.70
2018-09-08T04:45:25.153Z,86.32
2018-09-08T04:47:54.169Z,83.78
2018-09-08T04:50:23.209Z,82.16
2018-09-08T04:52:52.223Z,81.12
2018-09-08T04:55:21.209Z,78.46
2018-09-08T04:57:50.265Z,76.67
2018-09-08T05:00:19.304Z,74.73
2018-09-08T05:02:48.332Z,73.15
2018-09-08T05:05:17.397Z,71.87
2018-09-08T05:07:46.412Z,70.06
2018-09-08T05:10:15.485Z,67.16
2018-09-08T05:12:44.522Z,66.14
2018-09-08T05:15:13.571Z,67.10
2018-09-08T05:17:42.613Z,64.61
2018-09-08T05:20:11.673Z,63.95
2018-09-08T05:22:40.712Z,62.53
2018-09-08T05:25:09.751Z,61.76
2018-09-08T05:27:38.769Z,60.11
2018-09-08T05:30:07.808Z,59.16
2018-09-08T05:32:36.832Z,61.02
2018-09-08T05:35:05.934Z,59.79
2018-09-08T05:37:34.957Z,61.04
2018-09-08T05:40:04.105Z,61.34
2018-09-08T05:42:33.104Z,60.19
2018-09-08T05:45:02.097Z,65.19
2018-09-08T05:47:31.117Z,65.07
2018-09-08T05:50:00.125Z,67.77
2018-09-08T05:52:29.184Z,68.54
2018-09-08T05:54:58.191Z,65.78
2018-09-08T05:57:27.260Z,66.97
2018-09-08T05:59:56.257Z,67.20
2018-09-08T06:02:25.209Z,68.60
2018-09-08T06:04:54.228Z,69.42
2018-09-08T06:07:23.220Z,68.67
2018-09-08T06:09:52.244Z,68.15
2018-09-08T06:12:21.229Z,69.32
2018-09-08T06:14:50.232Z,69.82
2018-09-08T06:17:19.304Z,66.65
2018-09-08T06:19:48.346Z,67.75
2018-09-08T06:22:17.446Z,67.09
2018-09-08T06:24:46.470Z,63.59
2018-09-08T06:27:15.532Z,66.31
2018-09-08T06:29:44.540Z,64.71
2018-09-08T06:32:13.640Z,64.74
2018-09-08T06:34:42.685Z,60.98
2018-09-08T06:37:11.766Z,63.29
2018-09-08T06:39:40.716Z,63.58
2018-09-08T06:42:09.653Z,62.06
2018-09-08T06:44:38.689Z,59.51
2018-09-08T06:47:07.680Z,60.23
2018-09-08T06:49:36.736Z,61.89
2018-09-08T06:52:05.814Z,61.33
2018-09-08T06:54:34.832Z,59.84
2018-09-08T06:57:03.780Z,60.46
2018-09-08T06:59:32.805Z,59.58
2018-09-08T07:02:01.830Z,60.63
2018-09-08T07:04:30.852Z,62.06
2018-09-08T07:06:59.868Z,60.98
2018-09-08T07:09:28.908Z,60.51
2018-09-08T07:11:57.961Z,61.91
2018-09-08T07:14:27.040Z,62.14
2018-09-08T07:16:56.113Z,60.03
2018-09-08T07:19:25.172Z,57.89
2018-09-08T07:21:54.155Z,58.42
2018-09-08T07:24:23.273Z,57.72
2018-09-08T07:26:52.327Z,56.90
2018-09-08T07:29:21.410Z,57.88
2018-09-08T07:31:50.421Z,58.20
2018-09-08T07:34:19.457Z,58.24
2018-09-08T07:36:48.440Z,55.73
2018-09-08T07:39:17.429Z,58.78
2018-09-08T07:41:46.511Z,54.80
2018-09-08T07:44:15.541Z,56.38
2018-09-08T07:46:44.483Z,54.34
2018-09-08T07:49:13.517Z,54.49
2018-09-08T07:51:42.548Z,54.84
2018-09-08T07:54:11.551Z,52.95
2018-09-08T07:56:40.532Z,53.03
2018-09-08T07:59:09.662Z,52.99
2018-09-08T08:01:38.680Z,51.19
2018-09-08T08:04:07.717Z,49.45
2018-09-08T08:06:36.788Z,51.79
2018-09-08T08:09:07.526Z,49.38
2018-09-08T08:11:36.753Z,49.02
2018-09-08T08:14:05.828Z,50.45
2018-09-08T08:16:34.991Z,49.38
2018-09-08T08:19:04.005Z,48.88
2018-09-08T08:21:33.000Z,49.38
2018-09-08T08:24:02.077Z,47.43
2018-09-08T08:26:31.044Z,49.63
2018-09-08T08:29:00.208Z,47.41
2018-09-08T08:31:29.219Z,46.88
2018-09-08T08:33:58.337Z,47.30
2018-09-08T08:36:27.402Z,44.96
2018-09-08T08:38:56.732Z,49.68
2018-09-08T08:41:25.699Z,47.90
2018-09-08T08:43:54.646Z,46.67
2018-09-08T08:46:23.604Z,45.56
2018-09-08T08:48:52.696Z,45.35
2018-09-08T08:51:32.477Z,46.12
2018-09-08T08:54:14.649Z,45.81
2018-09-08T08:56:43.735Z,46.20
2018-09-08T08:59:12.741Z,43.96
2018-09-08T09:01:42.118Z,44.72
2018-09-08T09:04:11.493Z,42.68
2018-09-08T09:06:40.550Z,43.68
2018-09-08T09:09:12.773Z,42.84
2018-09-08T09:11:41.807Z,44.77
2018-09-08T09:14:11.485Z,43.29
2018-09-08T09:16:40.699Z,42.21
2018-09-08T09:19:35.929Z,42.38
2018-09-08T09:22:17.136Z,41.67
2018-09-08T09:24:52.770Z,40.73
2018-09-08T09:27:21.889Z,38.65
2018-09-08T09:29:51.028Z,40.70
2018-09-08T09:32:20.084Z,41.11
2018-09-08T09:34:49.030Z,40.16
2018-09-08T09:37:18.116Z,40.20
2018-09-08T09:39:47.373Z,40.46
2018-09-08T09:42:16.401Z,41.43
2018-09-08T09:44:45.444Z,41.61
2018-09-08T09:47:14.532Z,41.36
2018-09-08T09:49:43.492Z,42.48
2018-09-08T09:52:12.515Z,40.67
2018-09-08T09:54:41.496Z,41.26
2018-09-08T09:57:10.492Z,40.06
2018-09-08T09:59:39.527Z,40.51
2018-09-08T10:03:12.050Z,40.68
2018-09-08T10:05:41.033Z,38.83
2018-09-08T10:08:10.097Z,38.63
2018-09-08T10:10:39.137Z,35.66
2018-09-08T10:13:08.122Z,38.33
2018-09-08T10:15:37.140Z,37.42
2018-09-08T10:18:06.133Z,37.97
2018-09-08T10:20:35.172Z,36.35
2018-09-08T10:23:04.218Z,38.42
2018-09-08T10:25:33.285Z,37.42
2018-09-08T10:28:02.290Z,35.18
2018-09-08T10:30:31.260Z,37.56
2018-09-08T10:33:00.295Z,36.25
2018-09-08T10:35:29.292Z,37.61
2018-09-08T10:37:58.333Z,36.71
2018-09-08T10:40:27.420Z,38.07
2018-09-08T10:42:56.380Z,36.82
2018-09-08T10:45:25.368Z,38.32
2018-09-08T10:47:54.373Z,37.06
2018-09-08T10:50:23.497Z,35.82
2018-09-08T10:52:52.532Z,33.68
2018-09-08T10:55:21.556Z,34.12
2018-09-08T10:57:50.526Z,32.96
2018-09-08T11:00:19.606Z,31.99
2018-09-08T11:02:48.934Z,31.43
2018-09-08T11:05:17.569Z,30.92
2018-09-08T11:07:46.647Z,31.58
2018-09-08T11:10:15.743Z,31.63
2018-09-08T11:12:44.717Z,30.46
2018-09-08T11:15:13.720Z,28.33
2018-09-08T11:17:42.726Z,30.47
2018-09-08T11:20:11.836Z,28.05
2018-09-08T11:22:40.812Z,29.40
2018-09-08T11:25:09.837Z,28.59
2018-09-08T11:27:38.811Z,27.83
2018-09-08T11:30:08.260Z,28.38
2018-09-08T11:32:37.222Z,28.60
2018-09-08T11:35:06.386Z,28.87
2018-09-08T11:37:35.352Z,27.90
2018-09-08T11:40:04.317Z,27.77
2018-09-08T11:42:33.465Z,27.11
2018-09-08T11:45:02.468Z,26.91
2018-09-08T11:47:31.495Z,25.88
2018-09-08T11:50:00.465Z,25.99
2018-09-08T11:52:29.463Z,26.17
2018-09-08T11:54:58.429Z,24.12
2018-09-08T11:57:27.373Z,24.88
2018-09-08T11:59:56.397Z,26.18
2018-09-08T12:02:25.340Z,24.18
2018-09-08T12:04:54.372Z,24.11
2018-09-08T12:07:23.339Z,22.99
2018-09-08T12:09:52.297Z,22.22
2018-09-08T12:12:21.322Z,22.86
2018-09-08T12:14:50.260Z,26.30
2018-09-08T12:17:19.344Z,24.24
2018-09-08T12:19:48.369Z,25.52
2018-09-08T12:22:17.443Z,25.70
2018-09-08T12:24:46.483Z,24.63
2018-09-08T12:27:15.497Z,24.86
2018-09-08T12:29:44.599Z,23.67
2018-09-08T12:32:13.552Z,23.18
2018-09-08T12:34:42.717Z,24.55
2018-09-08T12:37:11.723Z,24.79
2018-09-08T12:39:40.640Z,26.12
2018-09-08T12:42:09.600Z,29.12
2018-09-08T12:44:38.541Z,29.25
2018-09-08T12:47:07.508Z,30.05
2018-09-08T12:49:36.471Z,30.43
2018-09-08T12:52:05.596Z,32.43
2018-09-08T12:54:34.592Z,32.38
2018-09-08T12:57:03.584Z,33.51
2018-09-08T12:59:32.578Z,35.07
2018-09-08T13:02:01.596Z,36.11
2018-09-08T13:04:30.557Z,35.63
2018-09-08T13:06:59.541Z,36.30
2018-09-08T13:09:28.605Z,37.16
2018-09-08T13:11:57.617Z,37.52
2018-09-08T13:14:26.590Z,38.25
2018-09-08T13:16:55.569Z,38.42
2018-09-08T13:19:24.496Z,35.81
2018-09-08T13:21:53.517Z,37.00
2018-09-08T13:24:22.592Z,36.35
2018-09-08T13:26:51.680Z,36.51
2018-09-08T13:29:20.635Z,38.25
2018-09-08T13:31:49.577Z,38.59
2018-09-08T13:34:18.653Z,39.85
2018-09-08T13:36:47.592Z,38.10
2018-09-08T13:39:16.540Z,37.90
2018-09-08T13:41:45.673Z,38.87
2018-09-08T13:44:14.721Z,38.42
2018-09-08T13:46:43.655Z,39.62
2018-09-08T13:49:12.648Z,38.79
2018-09-08T13:51:41.594Z,40.86
2018-09-08T13:54:10.552Z,39.80
2018-09-08T13:56:39.585Z,38.70
2018-09-08T13:59:08.693Z,38.74
2018-09-08T14:01:37.708Z,39.10
2018-09-08T14:04:06.915Z,37.60
2018-09-08T14:06:35.828Z,38.07
2018-09-08T14:09:05.100Z,39.43
2018-09-08T14:11:34.028Z,39.21
2018-09-08T14:14:02.976Z,40.07
2018-09-08T14:16:31.932Z,39.38
2018-09-08T14:19:01.004Z,40.12
2018-09-08T14:21:29.996Z,41.41
2018-09-08T14:23:59.024Z,42.00
2018-09-08T14:26:28.097Z,41.18
2018-09-08T14:28:57.122Z,41.48
2018-09-08T14:31:26.145Z,41.90
2018-09-08T14:34:01.069Z,43.44
2018-09-08T14:36:30.132Z,42.72
2018-09-08T14:38:59.145Z,43.08
2018-09-08T14:41:28.205Z,43.74
2018-09-08T14:43:57.159Z,44.45
2018-09-08T14:46:26.116Z,44.38
2018-09-08T14:48:55.088Z,45.46
2018-09-08T14:51:24.051Z,46.27
2018-09-08T14:53:53.120Z,46.04
2018-09-08T14:56:22.167Z,44.80
2018-09-08T14:58:51.224Z,46.61
2018-09-08T15:01:20.420Z,45.87
2018-09-08T15:03:49.355Z,48.22
2018-09-08T15:06:18.357Z,45.55
2018-09-08T15:08:47.300Z,46.05
2018-09-08T15:11:16.493Z,47.05
2018-09-08T15:13:45.464Z,47.58
2018-09-08T15:16:14.517Z,46.29
2018-09-08T15:18:43.729Z,47.27
2018-09-08T15:21:12.729Z,45.94
2018-09-08T15:23:41.793Z,46.58
2018-09-08T15:26:10.796Z,45.31
2018-09-08T15:28:39.957Z,46.92
2018-09-08T15:31:08.915Z,46.10
2018-09-08T15:33:37.917Z,46.43
2018-09-08T15:36:06.975Z,47.06
2018-09-08T15:38:35.899Z,47.53
2018-09-08T15:41:04.971Z,47.70
2018-09-08T15:43:34.058Z,47.38
2018-09-08T15:46:03.171Z,48.72
2018-09-08T15:48:32.164Z,47.58
2018-09-08T15:51:01.120Z,49.29
2018-09-08T15:53:30.302Z,48.83
2018-09-08T15:55:59.476Z,48.47
2018-09-08T15:58:28.556Z,50.20
2018-09-08T16:00:57.520Z,50.13
2018-09-08T16:03:26.591Z,49.40
2018-09-08T16:05:55.704Z,50.50
2018-09-08T16:08:24.653Z,50.77
2018-09-08T16:10:53.688Z,52.28
2018-09-08T16:13:22.631Z,53.75
2018-09-08T16:15:51.653Z,53.56
2018-09-08T16:18:20.661Z,53.56
2018-09-08T16:20:49.710Z,53.80
2018-09-08T16:23:18.687Z,54.53
2018-09-08T16:25:47.636Z,54.90
2018-09-08T16:28:17.235Z,51.58
2018-09-08T16:30:46.248Z,51.95
2018-09-08T16:33:15.224Z,52.80
2018-09-08T16:35:44.180Z,54.19
2018-09-08T16:38:13.204Z,52.05
2018-09-08T16:40:42.188Z,54.61
2018-09-08T16:43:11.127Z,52.95
2018-09-08T16:45:40.144Z,53.88
2018-09-08T16:48:09.169Z,55.13
2018-09-08T16:50:38.163Z,56.65
2018-09-08T16:53:07.502Z,57.93
2018-09-08T16:55:36.537Z,58.14
2018-09-08T16:58:05.586Z,58.66
2018-09-08T17:00:34.674Z,59.03
2018-09-08T17:03:03.623Z,59.14
2018-09-08T17:05:32.618Z,59.17
2018-09-08T17:08:01.635Z,60.39
2018-09-08T17:10:30.665Z,61.42
2018-09-08T17:12:59.676Z,63.06
2018-09-08T17:15:28.746Z,63.55
2018-09-08T17:17:57.711Z,64.60
2018-09-08T17:20:26.793Z,64.82
2018-09-08T17:22:55.883Z,65.03
2018-09-08T17:25:24.887Z,64.24
2018-09-08T17:27:53.892Z,65.29
2018-09-08T17:30:23.016Z,65.95
2018-09-08T17:32:52.157Z,66.73
2018-09-08T17:35:21.096Z,67.32
2018-09-08T17:37:50.159Z,67.27
2018-09-08T17:40:19.388Z,68.52
2018-09-08T17:42:48.399Z,67.12
2018-09-08T17:45:17.356Z,67.15
2018-09-08T17:47:46.390Z,71.64
2018-09-08T17:50:15.381Z,82.35
2018-09-08T17:52:44.379Z,82.36
2018-09-08T17:55:13.344Z,88.20
2018-09-08T17:57:42.365Z,89.34
2018-09-08T18:00:12.818Z,92.84
2018-09-08T18:02:42.444Z,96.00
2018-09-08T18:05:11.997Z,99.01
2018-09-08T18:07:41.045Z,100.00
2018-09-08T18:10:10.443Z,100.00
2018-09-08T18:12:39.582Z,100.00
2018-09-08T18:15:09.144Z,100.00
2018-09-08T18:17:38.216Z,100.00
2018-09-08T18:20:07.352Z,100.00
2018-09-08T18:22:37.097Z,100.00
2018-09-08T18:25:06.376Z,100.00
2018-09-08T18:27:35.459Z,100.00
2018-09-08T18:30:04.546Z,100.00
2018-09-08T18:32:33.569Z,100.00
2018-09-08T18:35:02.593Z,100.00
2018-09-08T18:37:31.599Z,100.00
2018-09-08T18:40:00.621Z,100.00
2018-09-08T18:42:29.600Z,98.71
2018-09-08T18:44:58.589Z,96.70
2018-09-08T18:47:27.617Z,96.66
2018-09-08T18:49:56.677Z,95.78
2018-09-08T18:52:26.589Z,97.56
2018-09-08T18:54:55.700Z,94.62
2018-09-08T18:57:24.712Z,94.51
2018-09-08T18:59:53.738Z,95.70
2018-09-08T19:02:22.696Z,88.34
2018-09-08T19:04:51.723Z,91.40
2018-09-08T19:07:20.679Z,91.32
2018-09-08T19:09:54.848Z,88.16
2018-09-08T19:12:23.852Z,91.09
2018-09-08T19:15:28.531Z,89.93
2018-09-08T19:17:57.465Z,86.25
2018-09-08T19:20:31.589Z,87.88
2018-09-08T19:23:00.624Z,84.54
2018-09-08T19:25:29.580Z,86.16
2018-09-08T19:27:58.601Z,88.95
2018-09-08T19:30:27.657Z,86.55
2018-09-08T19:32:56.628Z,83.64
2018-09-08T19:35:30.668Z,85.56
2018-09-08T19:37:59.676Z,85.69
2018-09-08T19:40:33.730Z,85.21
2018-09-08T19:43:02.911Z,84.36
2018-09-08T19:45:31.950Z,87.98
2018-09-08T19:48:04.205Z,84.63
2018-09-08T19:50:33.624Z,83.46
2018-09-08T19:53:07.648Z,84.06
2018-09-08T19:55:36.635Z,81.12
2018-09-08T19:58:10.724Z,83.63
2018-09-08T20:00:39.760Z,81.56
2018-09-08T20:03:08.760Z,79.21
2018-09-08T20:05:37.878Z,78.70
2018-09-08T20:08:07.065Z,79.48
2018-09-08T20:10:36.084Z,80.98
2018-09-08T20:13:05.078Z,80.05
2018-09-08T20:15:34.174Z,80.84
2018-09-08T20:18:03.169Z,82.92
2018-09-08T20:20:32.180Z,79.08
2018-09-08T20:23:01.305Z,79.94
2018-09-08T20:25:30.373Z,80.30
2018-09-08T20:27:59.414Z,80.45
2018-09-08T20:30:28.396Z,80.13
2018-09-08T20:32:57.484Z,78.43
2018-09-08T20:35:26.505Z,78.40
2018-09-08T20:37:55.465Z,78.44
2018-09-08T20:40:24.427Z,77.10
2018-09-08T20:42:53.368Z,74.98
2018-09-08T20:45:22.415Z,74.27
2018-09-08T20:47:54.311Z,75.42
2018-09-08T20:50:23.551Z,74.52
2018-09-08T20:52:52.504Z,74.99
2018-09-08T20:55:21.443Z,77.15
2018-09-08T20:57:50.444Z,74.52
2018-09-08T21:00:19.446Z,77.24
2018-09-08T21:02:48.398Z,77.49
2018-09-08T21:05:17.424Z,77.32
2018-09-08T21:07:46.518Z,77.54
2018-09-08T21:10:15.539Z,76.99
2018-09-08T21:12:44.486Z,77.91
2018-09-08T21:15:13.505Z,80.16
2018-09-08T21:17:42.565Z,81.21
2018-09-08T21:20:11.588Z,84.34
2018-09-08T21:22:40.528Z,84.64
2018-09-08T21:25:09.617Z,85.60
2018-09-08T21:27:38.696Z,85.37
2018-09-08T21:30:07.692Z,87.46
2018-09-08T21:32:36.647Z,88.58
2018-09-08T21:35:05.580Z,87.92
2018-09-08T21:37:34.608Z,88.42
2018-09-08T21:40:03.621Z,88.15
2018-09-08T21:42:32.636Z,89.62
2018-09-08T21:45:01.710Z,88.85
2018-09-08T21:47:30.648Z,88.16
2018-09-08T21:49:59.649Z,87.73
2018-09-08T21:52:28.700Z,86.82
2018-09-08T21:54:57.704Z,86.56
2018-09-08T21:57:26.673Z,87.76
2018-09-08T21:59:55.681Z,86.68
2018-09-08T22:02:24.684Z,87.56
2018-09-08T22:04:53.698Z,85.93
2018-09-08T22:07:22.800Z,86.39
2018-09-08T22:09:51.870Z,86.19
2018-09-08T22:12:20.783Z,85.24
2018-09-08T22:14:49.760Z,86.93
2018-09-08T22:17:18.763Z,86.46
2018-09-08T22:19:47.696Z,87.76
2018-09-08T22:22:16.643Z,86.62
2018-09-08T22:24:45.695Z,88.76
2018-09-08T22:27:14.689Z,88.30
2018-09-08T22:29:43.652Z,88.69
2018-09-08T22:32:12.645Z,88.75
2018-09-08T22:34:41.760Z,89.22
2018-09-08T22:37:10.776Z,88.97
2018-09-08T22:39:39.780Z,88.65
2018-09-08T22:42:08.765Z,88.48
2018-09-08T22:44:37.786Z,89.09
2018-09-08T22:47:06.992Z,87.09
2018-09-08T22:49:36.040Z,85.84
2018-09-08T22:52:05.043Z,86.24
2018-09-08T22:54:33.982Z,86.44
2018-09-08T22:57:02.928Z,84.71
2018-09-08T22:59:32.010Z,86.19
2018-09-08T23:02:01.016Z,85.89
2018-09-08T23:04:30.037Z,85.83
2018-09-08T23:06:59.060Z,86.81
2018-09-08T23:09:28.152Z,85.27
2018-09-08T23:11:57.095Z,85.09
2018-09-08T23:14:26.093Z,84.63
2018-09-08T23:16:55.047Z,85.50
2018-09-08T23:19:23.978Z,86.00
2018-09-08T23:21:52.988Z,85.78
2018-09-08T23:24:21.988Z,85.41
2018-09-08T23:26:51.149Z,84.08
2018-09-08T23:29:20.083Z,83.33
2018-09-08T23:31:49.072Z,83.38
2018-09-08T23:34:18.052Z,84.62
2018-09-08T23:36:47.101Z,83.78
2018-09-08T23:39:16.132Z,82.57
2018-09-08T23:41:45.072Z,81.58
2018-09-08T23:44:14.090Z,82.23
2018-09-08T23:46:43.153Z,81.62
2018-09-08T23:49:12.201Z,81.12
2018-09-08T23:51:41.265Z,82.57
2018-09-08T23:54:10.211Z,80.98
2018-09-08T23:56:39.172Z,80.11
2018-09-08T23:59:08.112Z,80.87
